Time;durP1;ratioP1;P1;durP2;ratioP2;P2;SDS_P1;SDS_P2;PMS_P1;PMS_P2;Temp;Humidity;BMP_temperature;BMP_pressure;BME280_temperature;BME280_humidity;BME280_pressure;Samples;Min_cycle;Max_cycle;Signal;HPM_P1;HPM_P2
2021/06/18 00:01:55;;;;;;;12.65;9.95;;;;;;;22.39;nan;101658.69;5045941;28;20025;-49
2021/06/18 00:04:21;;;;;;;16.60;10.60;;;;;;;22.31;nan;101658.31;5044800;28;20029;-49
2021/06/18 00:06:46;;;;;;;15.40;10.75;;;;;;;22.22;nan;101653.84;5043055;28;20025;-49
2021/06/18 00:09:12;;;;;;;15.32;11.57;;;;;;;22.31;nan;101657.50;5058829;28;20475;-51
2021/06/18 00:11:37;;;;;;;12.95;10.95;;;;;;;22.28;nan;101649.91;5046666;28;20041;-47
2021/06/18 00:14:05;;;;;;;14.93;10.98;;;;;;;22.31;nan;101652.84;5043611;28;20028;-50
2021/06/18 00:16:31;;;;;;;12.48;11.05;;;;;;;22.29;nan;101655.06;5044700;28;20036;-50
2021/06/18 00:18:57;;;;;;;12.55;10.65;;;;;;;22.22;nan;101653.84;5047475;28;20514;-49
2021/06/18 00:21:22;;;;;;;13.18;10.35;;;;;;;22.04;nan;101652.81;5047814;28;20028;-51
2021/06/18 00:23:48;;;;;;;15.13;11.45;;;;;;;22.11;nan;101641.53;5046722;28;20065;-48
2021/06/18 00:26:13;;;;;;;13.07;11.25;;;;;;;22.12;nan;101643.97;5044676;28;20031;-48
2021/06/18 00:28:39;;;;;;;14.48;11.45;;;;;;;22.06;nan;101638.88;5046763;28;20056;-49
2021/06/18 00:31:04;;;;;;;16.98;11.07;;;;;;;22.10;nan;101645.38;5047779;28;20139;-47
2021/06/18 00:33:30;;;;;;;13.93;11.00;;;;;;;22.13;nan;101647.50;5045681;28;20371;-52
2021/06/18 00:35:57;;;;;;;15.27;10.93;;;;;;;22.08;nan;101634.75;5042958;28;20028;-48
2021/06/18 00:38:23;;;;;;;15.15;11.25;;;;;;;22.11;nan;101634.16;5046730;28;20059;-47
2021/06/18 00:40:48;;;;;;;12.65;10.57;;;;;;;22.14;nan;101633.53;5039798;28;20060;-47
2021/06/18 00:43:14;;;;;;;13.07;11.02;;;;;;;22.02;nan;101641.38;5046808;28;20047;-50
2021/06/18 00:45:39;;;;;;;12.32;10.32;;;;;;;22.00;nan;101638.97;5044622;28;20048;-47
2021/06/18 00:48:06;;;;;;;14.82;10.85;;;;;;;21.88;nan;101644.09;5046998;28;20040;-47
2021/06/18 00:50:32;;;;;;;12.10;10.90;;;;;;;21.85;nan;101639.25;5042677;28;20035;-49
2021/06/18 00:52:58;;;;;;;15.60;11.85;;;;;;;21.77;nan;101650.88;5043565;28;20024;-50
2021/06/18 00:55:24;;;;;;;16.67;11.50;;;;;;;21.78;nan;101649.78;5041199;28;20179;-49
2021/06/18 00:57:51;;;;;;;13.63;11.32;;;;;;;21.67;nan;101643.69;5036736;28;20056;-47
2021/06/18 01:00:18;;;;;;;13.48;11.30;;;;;;;21.65;nan;101640.47;5042156;28;20029;-49
2021/06/18 01:02:44;;;;;;;15.82;11.65;;;;;;;21.59;nan;101638.94;5034899;28;20103;-48
2021/06/18 01:05:13;;;;;;;13.23;11.48;;;;;;;21.59;nan;101635.41;5041161;28;20033;-49
2021/06/18 01:07:46;;;;;;;16.83;12.00;;;;;;;21.50;nan;101637.19;5041596;28;20113;-48
2021/06/18 01:10:39;;;;;;;14.40;12.03;;;;;;;21.46;nan;101633.44;5039176;28;20029;-47
2021/06/18 01:13:26;;;;;;;13.10;11.57;;;;;;;21.35;nan;101641.78;5042908;28;20244;-49
2021/06/18 01:16:06;;;;;;;14.35;12.50;;;;;;;21.23;nan;101644.16;5042522;28;20213;-47
2021/06/18 01:18:44;;;;;;;14.52;12.65;;;;;;;21.20;nan;101644.78;5041455;28;20024;-47
2021/06/18 01:21:17;;;;;;;17.02;12.55;;;;;;;21.23;nan;101644.16;5043147;28;20483;-48
2021/06/18 01:24:18;;;;;;;17.00;12.30;;;;;;;21.09;nan;101643.31;5041798;28;20123;-49
2021/06/18 01:27:01;;;;;;;13.93;11.88;;;;;;;21.10;nan;101648.44;5042672;28;20024;-47
2021/06/18 01:29:36;;;;;;;16.83;12.15;;;;;;;21.08;nan;101644.41;5041907;28;20083;-47
2021/06/18 01:32:05;;;;;;;16.42;12.55;;;;;;;21.16;nan;101637.47;5042294;28;20072;-48
2021/06/18 01:34:33;;;;;;;15.50;11.55;;;;;;;21.19;nan;101632.25;5039777;28;20025;-50
2021/06/18 01:37:13;;;;;;;13.93;12.50;;;;;;;21.09;nan;101632.41;5040354;28;20025;-49
2021/06/18 01:39:40;;;;;;;14.15;12.60;;;;;;;21.06;nan;101635.72;5040657;28;20059;-47
2021/06/18 01:42:08;;;;;;;14.02;12.23;;;;;;;21.03;nan;101644.50;5043876;28;20270;-48
2021/06/18 01:44:35;;;;;;;12.95;11.63;;;;;;;21.00;nan;101639.63;5039481;28;20033;-47
2021/06/18 01:47:02;;;;;;;15.82;12.65;;;;;;;20.97;nan;101640.22;5042709;28;20025;-48
2021/06/18 01:49:30;;;;;;;16.50;12.63;;;;;;;20.92;nan;101643.03;5041558;28;20432;-49
2021/06/18 01:51:59;;;;;;;14.35;12.85;;;;;;;20.84;nan;101640.97;5041519;28;20127;-50
2021/06/18 01:54:28;;;;;;;17.27;12.98;;;;;;;20.83;nan;101633.91;5040165;28;20044;-50
2021/06/18 01:56:56;;;;;;;16.25;13.18;;;;;;;20.79;nan;101634.47;5041705;28;20033;-47
2021/06/18 01:59:24;;;;;;;16.98;13.00;;;;;;;20.72;nan;101634.06;5042127;28;20116;-47
2021/06/18 02:01:51;;;;;;;21.15;13.75;;;;;;;20.65;nan;101630.91;5039947;28;20112;-48
2021/06/18 02:04:18;;;;;;;18.35;13.68;;;;;;;20.58;nan;101643.25;5042192;28;20114;-50
2021/06/18 02:06:45;;;;;;;15.05;12.55;;;;;;;20.43;nan;101636.09;5041276;28;20025;-47
2021/06/18 02:09:14;;;;;;;16.52;13.63;;;;;;;20.41;nan;101627.41;5040080;28;20457;-48
2021/06/18 02:11:41;;;;;;;15.20;13.40;;;;;;;20.35;nan;101629.38;5041581;28;20039;-48
2021/06/18 02:14:15;;;;;;;18.58;13.02;;;;;;;20.29;nan;101635.16;5040702;28;20032;-49
2021/06/18 02:16:43;;;;;;;17.90;14.13;;;;;;;20.27;nan;101632.72;5039086;28;20021;-47
2021/06/18 02:19:12;;;;;;;18.13;14.52;;;;;;;20.25;nan;101631.41;5040292;28;20287;-48
2021/06/18 02:21:39;;;;;;;20.17;15.30;;;;;;;20.22;nan;101636.31;5041886;28;20611;-48
2021/06/18 02:24:05;;;;;;;16.98;14.45;;;;;;;20.25;nan;101636.84;5041500;28;20024;-48
2021/06/18 02:26:31;;;;;;;17.83;14.02;;;;;;;20.19;nan;101636.91;5039785;28;20459;-49
2021/06/18 02:28:57;;;;;;;17.52;14.45;;;;;;;20.18;nan;101638.00;5038705;28;20064;-47
2021/06/18 02:31:24;;;;;;;17.45;15.18;;;;;;;20.18;nan;101635.28;5038538;28;20163;-48
2021/06/18 02:33:51;;;;;;;20.25;15.25;;;;;;;20.16;nan;101636.69;5040862;28;20017;-47
2021/06/18 02:36:18;;;;;;;19.88;15.60;;;;;;;20.15;nan;101646.75;5038739;28;20048;-47
2021/06/18 02:38:44;;;;;;;18.77;15.38;;;;;;;20.14;nan;101650.59;5039723;28;20403;-48
2021/06/18 02:41:10;;;;;;;21.77;15.75;;;;;;;20.13;nan;101651.69;5042505;28;20029;-49
2021/06/18 02:43:36;;;;;;;19.08;15.65;;;;;;;20.04;nan;101653.41;5040217;28;20028;-50
2021/06/18 02:46:02;;;;;;;24.73;15.90;;;;;;;20.00;nan;101654.28;5041338;28;20039;-51
2021/06/18 02:48:33;;;;;;;18.08;15.48;;;;;;;19.95;nan;101647.00;5040050;28;20037;-47
2021/06/18 02:51:16;;;;;;;17.30;14.85;;;;;;;19.89;nan;101651.66;5042187;28;20025;-47
2021/06/18 02:53:55;;;;;;;18.98;15.57;;;;;;;19.85;nan;101647.91;5040409;28;20485;-49
2021/06/18 02:56:23;;;;;;;19.60;14.85;;;;;;;19.88;nan;101639.16;5037814;28;20021;-50
2021/06/18 02:59:01;;;;;;;16.70;14.32;;;;;;;19.81;nan;101646.06;5042710;28;20039;-50
2021/06/18 03:01:30;;;;;;;23.13;14.60;;;;;;;19.82;nan;101650.41;5039084;28;20090;-48
2021/06/18 03:03:59;;;;;;;17.17;15.10;;;;;;;19.81;nan;101654.22;5041430;28;20052;-49
2021/06/18 03:06:26;;;;;;;20.88;16.55;;;;;;;19.82;nan;101650.41;5039699;28;20124;-50
2021/06/18 03:08:57;;;;;;;22.40;16.25;;;;;;;19.77;nan;101655.91;5040158;28;20024;-47
2021/06/18 03:11:28;;;;;;;18.65;15.15;;;;;;;19.72;nan;101653.22;5034713;28;21629;-47
2021/06/18 03:13:56;;;;;;;21.02;15.88;;;;;;;19.81;nan;101662.38;5040408;28;20021;-48
2021/06/18 03:16:23;;;;;;;18.45;15.05;;;;;;;19.85;nan;101657.97;5040884;28;20017;-50
2021/06/18 03:18:50;;;;;;;19.05;15.82;;;;;;;19.92;nan;101670.13;5040487;28;20100;-48
2021/06/18 03:21:16;;;;;;;18.38;15.52;;;;;;;19.97;nan;101663.03;5040577;28;20034;-48
2021/06/18 03:23:44;;;;;;;19.27;15.82;;;;;;;20.01;nan;101662.16;5040466;28;20056;-47
2021/06/18 03:26:10;;;;;;;18.85;15.90;;;;;;;20.11;nan;101672.94;5035087;28;20032;-50
2021/06/18 03:28:36;;;;;;;18.77;15.07;;;;;;;20.17;nan;101660.88;5040862;28;20036;-46
2021/06/18 03:31:07;;;;;;;24.15;15.20;;;;;;;20.20;nan;101663.03;5043299;28;20032;-47
2021/06/18 03:33:33;;;;;;;17.40;15.48;;;;;;;20.27;nan;101664.56;5060371;28;20488;-48
2021/06/18 03:35:59;;;;;;;23.75;16.55;;;;;;;20.25;nan;101672.22;5044307;28;20067;-48
2021/06/18 03:38:25;;;;;;;20.75;16.70;;;;;;;20.30;nan;101672.97;5041396;28;20098;-46
2021/06/18 03:40:50;;;;;;;21.10;16.48;;;;;;;20.33;nan;101668.88;5046230;28;20021;-48
2021/06/18 03:43:16;;;;;;;19.02;17.00;;;;;;;20.43;nan;101668.75;5043838;28;20032;-47
2021/06/18 03:45:45;;;;;;;24.02;16.50;;;;;;;20.45;nan;101672.81;5043125;28;20025;-47
2021/06/18 03:48:15;;;;;;;23.05;16.92;;;;;;;20.48;nan;101674.97;5044122;28;20032;-50
2021/06/18 03:50:41;;;;;;;21.90;17.40;;;;;;;20.51;nan;101687.19;5044624;28;20029;-48
2021/06/18 03:53:10;;;;;;;19.70;17.08;;;;;;;20.59;nan;101681.06;5041981;28;20055;-48
2021/06/18 03:55:38;;;;;;;18.13;16.15;;;;;;;20.66;nan;101678.00;5044592;28;20033;-47
2021/06/18 03:58:04;;;;;;;20.35;16.45;;;;;;;20.74;nan;101678.13;5040508;28;20024;-50
2021/06/18 04:00:36;;;;;;;19.90;16.33;;;;;;;20.80;nan;101679.69;5042462;28;20099;-49
2021/06/18 04:03:03;;;;;;;18.42;16.50;;;;;;;20.83;nan;101674.78;5041252;28;20098;-47
2021/06/18 04:05:30;;;;;;;16.95;15.15;;;;;;;20.89;nan;101676.31;5043306;28;20028;-50
2021/06/18 04:07:57;;;;;;;18.55;15.52;;;;;;;20.95;nan;101678.66;5026269;28;20025;-49
2021/06/18 04:10:24;;;;;;;18.92;15.48;;;;;;;21.05;nan;101683.16;5054283;28;20075;-47
2021/06/18 04:12:51;;;;;;;18.80;16.20;;;;;;;21.14;nan;101675.91;5058711;28;20025;-50
2021/06/18 04:15:20;;;;;;;24.77;16.52;;;;;;;21.21;nan;101679.09;5042540;28;20025;-50
2021/06/18 04:17:46;;;;;;;21.05;16.80;;;;;;;21.30;nan;101684.69;5041153;28;20024;-47
2021/06/18 04:20:12;;;;;;;19.00;15.43;;;;;;;21.37;nan;101677.78;5042476;28;20024;-47
2021/06/18 04:22:39;;;;;;;21.02;16.05;;;;;;;21.44;nan;101679.28;5034614;28;20402;-50
2021/06/18 04:25:05;;;;;;;21.48;17.38;;;;;;;21.50;nan;101676.16;5036304;28;20216;-48
2021/06/18 04:27:33;;;;;;;22.50;16.23;;;;;;;21.57;nan;101670.34;5039576;28;20036;-51
2021/06/18 04:29:58;;;;;;;21.83;16.67;;;;;;;21.66;nan;101666.63;5043850;28;20024;-50
2021/06/18 04:32:24;;;;;;;19.13;16.17;;;;;;;21.76;nan;101673.00;5039619;28;20028;-49
2021/06/18 04:34:49;;;;;;;20.85;16.35;;;;;;;21.79;nan;101669.69;5039749;28;20063;-48
2021/06/18 04:37:15;;;;;;;17.60;15.75;;;;;;;21.86;nan;101678.25;5041230;28;20059;-50
2021/06/18 04:39:41;;;;;;;19.30;15.82;;;;;;;21.92;nan;101671.63;5032315;28;20052;-50
2021/06/18 04:42:06;;;;;;;20.30;16.02;;;;;;;21.94;nan;101681.13;5039822;28;20033;-47
2021/06/18 04:44:32;;;;;;;21.48;15.70;;;;;;;22.05;nan;101675.47;5035170;28;20263;-50
2021/06/18 04:46:57;;;;;;;17.55;15.73;;;;;;;22.07;nan;101678.72;5039894;28;20037;-51
2021/06/18 04:49:23;;;;;;;17.90;15.98;;;;;;;22.19;nan;101679.03;5042098;28;20036;-49
2021/06/18 04:51:49;;;;;;;19.48;15.45;;;;;;;22.18;nan;101674.69;5035151;28;20036;-48
2021/06/18 04:54:14;;;;;;;17.38;14.95;;;;;;;22.23;nan;101672.66;5037385;28;20306;-46
2021/06/18 04:56:41;;;;;;;19.52;15.77;;;;;;;22.28;nan;101672.56;5035845;28;20368;-47
2021/06/18 04:59:07;;;;;;;19.27;15.57;;;;;;;22.46;nan;101679.03;5034314;28;20398;-46
2021/06/18 05:01:33;;;;;;;16.73;14.90;;;;;;;22.50;nan;101671.81;5033450;28;20167;-47
2021/06/18 05:03:58;;;;;;;16.85;14.63;;;;;;;22.65;nan;101686.28;5038585;28;20063;-47
2021/06/18 05:06:24;;;;;;;16.45;14.75;;;;;;;22.74;nan;101687.97;5033137;28;20191;-46
2021/06/18 05:08:51;;;;;;;17.90;14.55;;;;;;;22.86;nan;101685.53;5033630;28;20025;-46
2021/06/18 05:11:16;;;;;;;18.40;15.23;;;;;;;22.90;nan;101681.06;5039304;28;20025;-47
2021/06/18 05:13:42;;;;;;;15.05;13.52;;;;;;;23.00;nan;101680.03;5026769;28;20460;-48
2021/06/18 05:16:07;;;;;;;19.23;14.35;;;;;;;23.14;nan;101679.97;5035391;28;20174;-46
2021/06/18 05:18:33;;;;;;;16.92;14.45;;;;;;;23.16;nan;101681.28;5028759;28;20056;-47
2021/06/18 05:20:58;;;;;;;16.95;13.80;;;;;;;23.19;nan;101688.88;5039306;28;20358;-47
2021/06/18 05:23:23;;;;;;;16.00;14.02;;;;;;;23.30;nan;101683.94;5037733;28;20032;-47
2021/06/18 05:25:49;;;;;;;15.77;13.82;;;;;;;23.41;nan;101685.31;5039252;28;20334;-47
2021/06/18 05:28:14;;;;;;;19.20;14.15;;;;;;;23.46;nan;101676.16;5038251;28;20053;-46
2021/06/18 05:30:40;;;;;;;18.30;13.40;;;;;;;23.60;nan;101679.66;5035237;28;20039;-47
2021/06/18 05:33:05;;;;;;;17.05;13.27;;;;;;;23.75;nan;101684.75;5037513;28;20182;-47
2021/06/18 05:35:31;;;;;;;19.13;14.40;;;;;;;23.86;nan;101677.06;5036592;28;20031;-47
2021/06/18 05:37:56;;;;;;;14.82;13.23;;;;;;;24.00;nan;101685.97;5035745;28;20258;-47
2021/06/18 05:40:22;;;;;;;14.20;12.70;;;;;;;24.18;nan;101684.09;5037153;28;20028;-47
2021/06/18 05:42:48;;;;;;;15.05;13.02;;;;;;;24.36;nan;101685.00;5034839;28;20044;-46
2021/06/18 05:45:14;;;;;;;13.88;12.50;;;;;;;24.48;nan;101681.66;5038971;28;20025;-47
2021/06/18 05:47:40;;;;;;;15.57;12.48;;;;;;;24.52;nan;101691.63;5039602;28;20025;-47
2021/06/18 05:50:06;;;;;;;13.85;11.55;;;;;;;24.59;nan;101685.69;5037237;28;20036;-47
2021/06/18 05:52:33;;;;;;;17.90;12.55;;;;;;;24.66;nan;101691.50;5038529;28;20407;-46
2021/06/18 05:54:59;;;;;;;13.45;11.95;;;;;;;24.80;nan;101697.66;5036454;28;20627;-46
2021/06/18 05:57:24;;;;;;;18.15;12.27;;;;;;;24.96;nan;101698.00;5043895;28;20578;-46
2021/06/18 05:59:50;;;;;;;15.10;11.07;;;;;;;25.10;nan;101692.34;5046506;28;20067;-46
2021/06/18 06:02:15;;;;;;;17.27;11.75;;;;;;;25.23;nan;101705.09;5050547;28;20029;-48
2021/06/18 06:04:41;;;;;;;15.10;11.88;;;;;;;25.25;nan;101697.34;5050082;28;20036;-46
2021/06/18 06:07:06;;;;;;;14.75;11.63;;;;;;;25.39;nan;101705.41;5043644;28;20024;-46
2021/06/18 06:09:32;;;;;;;13.57;11.60;;;;;;;25.39;nan;101708.97;5044811;28;20032;-47
2021/06/18 06:11:57;;;;;;;14.27;10.93;;;;;;;25.42;nan;101713.78;5046885;28;20115;-46
2021/06/18 06:14:23;;;;;;;14.52;11.52;;;;;;;25.43;nan;101706.38;5041687;28;20036;-47
2021/06/18 06:16:48;;;;;;;12.75;10.82;;;;;;;25.53;nan;101704.09;5049073;28;20216;-47
2021/06/18 06:19:15;;;;;;;12.50;11.07;;;;;;;25.70;nan;101708.78;5048701;28;20502;-46
2021/06/18 06:21:41;;;;;;;13.90;11.20;;;;;;;25.90;nan;101704.50;5051922;28;20028;-46
2021/06/18 06:24:10;;;;;;;16.95;11.10;;;;;;;26.11;nan;101712.81;5046440;28;20407;-46
2021/06/18 06:26:36;;;;;;;11.95;10.60;;;;;;;26.15;nan;101716.50;5050276;28;20032;-46
2021/06/18 06:29:02;;;;;;;13.77;10.80;;;;;;;26.29;nan;101708.84;5042966;28;20029;-46
2021/06/18 06:31:28;;;;;;;14.73;11.05;;;;;;;26.41;nan;101706.25;5053928;28;20020;-47
2021/06/18 06:33:53;;;;;;;12.02;10.68;;;;;;;26.22;nan;101705.03;5063346;28;20479;-47
2021/06/18 06:36:19;;;;;;;12.20;10.23;;;;;;;26.29;nan;101702.56;5045485;28;20126;-46
2021/06/18 06:38:45;;;;;;;13.20;10.88;;;;;;;26.55;nan;101708.72;5046202;28;20395;-46
2021/06/18 06:41:10;;;;;;;12.55;10.48;;;;;;;26.71;nan;101714.44;5053168;28;20198;-47
2021/06/18 06:43:36;;;;;;;11.90;10.65;;;;;;;26.82;nan;101709.38;5052239;28;20090;-46
2021/06/18 06:46:02;;;;;;;13.95;10.88;;;;;;;27.05;nan;101711.47;5049826;28;20033;-47
2021/06/18 06:48:28;;;;;;;11.48;10.27;;;;;;;27.18;nan;101706.03;5045922;28;20521;-48
2021/06/18 06:50:53;;;;;;;10.57;9.38;;;;;;;27.37;nan;101709.88;5049835;28;20056;-47
2021/06/18 06:53:19;;;;;;;16.83;10.35;;;;;;;27.55;nan;101701.44;5047361;28;20239;-46
2021/06/18 06:55:44;;;;;;;10.60;9.43;;;;;;;27.72;nan;101693.03;5050867;28;20411;-46
2021/06/18 06:58:11;;;;;;;12.38;9.27;;;;;;;27.76;nan;101691.19;5046609;28;20036;-47
2021/06/18 07:00:36;;;;;;;10.65;9.55;;;;;;;27.77;nan;101690.03;5047879;28;20104;-47
2021/06/18 07:03:02;;;;;;;10.73;8.45;;;;;;;27.83;nan;101698.88;5052732;28;20369;-47
2021/06/18 07:05:27;;;;;;;10.55;8.43;;;;;;;28.06;nan;101693.75;5054996;28;20071;-46
2021/06/18 07:07:53;;;;;;;9.25;8.32;;;;;;;28.10;nan;101694.66;5051689;28;20052;-46
2021/06/18 07:10:19;;;;;;;9.70;8.52;;;;;;;28.37;nan;101687.66;5050724;28;20513;-46
2021/06/18 07:12:44;;;;;;;9.98;9.00;;;;;;;28.53;nan;101688.56;5049127;28;20407;-46
2021/06/18 07:15:10;;;;;;;20.23;9.40;;;;;;;28.71;nan;101689.09;5057254;28;20186;-46
2021/06/18 07:17:36;;;;;;;11.02;8.43;;;;;;;28.65;nan;101693.28;5049447;28;20155;-47
2021/06/18 07:20:02;;;;;;;8.65;7.78;;;;;;;28.74;nan;101694.75;5051285;28;20068;-46
2021/06/18 07:22:30;;;;;;;9.88;8.07;;;;;;;28.72;nan;101696.22;5045003;28;20032;-46
2021/06/18 07:24:57;;;;;;;9.00;8.10;;;;;;;28.83;nan;101697.34;5050928;28;20033;-47
2021/06/18 07:27:23;;;;;;;9.18;7.72;;;;;;;28.85;nan;101695.06;5049234;28;20449;-47
2021/06/18 07:29:50;;;;;;;9.80;8.52;;;;;;;29.10;nan;101693.06;5052380;28;20488;-46
2021/06/18 07:32:16;;;;;;;9.40;8.50;;;;;;;29.25;nan;101691.47;5042146;28;20032;-47
2021/06/18 07:34:42;;;;;;;11.75;8.48;;;;;;;29.31;nan;101698.38;5043347;28;20139;-47
2021/06/18 07:37:07;;;;;;;9.38;8.25;;;;;;;29.43;nan;101688.03;5049028;28;20402;-47
2021/06/18 07:39:33;;;;;;;8.98;7.90;;;;;;;29.28;nan;101690.78;5050608;28;20032;-47
2021/06/18 07:41:59;;;;;;;9.93;7.80;;;;;;;29.44;nan;101692.44;5048917;28;20056;-48
2021/06/18 07:44:24;;;;;;;8.85;7.95;;;;;;;29.53;nan;101686.75;5056443;28;20062;-47
2021/06/18 07:46:50;;;;;;;8.40;7.55;;;;;;;29.62;nan;101698.44;5050441;28;20024;-47
2021/06/18 07:49:15;;;;;;;11.45;8.32;;;;;;;29.82;nan;101682.78;5050854;28;20028;-46
2021/06/18 07:51:41;;;;;;;9.75;7.88;;;;;;;29.97;nan;101684.72;5042307;28;20037;-47
2021/06/18 07:54:07;;;;;;;7.88;7.18;;;;;;;30.12;nan;101687.88;5050407;28;20475;-48
2021/06/18 07:56:34;;;;;;;10.38;8.18;;;;;;;29.63;nan;101680.72;5056783;28;20146;-48
2021/06/18 07:59:00;;;;;;;10.20;8.02;;;;;;;30.05;nan;101677.44;5045607;28;20029;-47
2021/06/18 08:01:25;;;;;;;8.32;7.25;;;;;;;30.30;nan;101681.59;5049479;28;20021;-47
2021/06/18 08:03:51;;;;;;;25.85;7.95;;;;;;;30.58;nan;101669.56;5047920;28;20471;-47
2021/06/18 08:06:17;;;;;;;12.85;7.68;;;;;;;30.61;nan;101668.84;5049782;28;20107;-47
2021/06/18 08:08:43;;;;;;;9.85;7.70;;;;;;;30.77;nan;101671.59;5044356;28;20036;-47
2021/06/18 08:11:09;;;;;;;11.65;7.85;;;;;;;30.74;nan;101664.03;5041147;28;20029;-47
2021/06/18 08:13:34;;;;;;;7.97;7.28;;;;;;;30.32;nan;101667.41;5038552;28;20039;-46
2021/06/18 08:16:00;;;;;;;8.48;7.18;;;;;;;30.58;nan;101664.84;5040646;28;20051;-47
2021/06/18 08:18:26;;;;;;;9.60;7.57;;;;;;;30.90;nan;101661.97;5050004;28;20048;-47
2021/06/18 08:20:51;;;;;;;12.57;7.38;;;;;;;31.16;nan;101655.75;5043131;28;20133;-48
2021/06/18 08:23:17;;;;;;;9.00;7.30;;;;;;;31.40;nan;101654.63;5039071;28;20053;-48
2021/06/18 08:25:42;;;;;;;9.07;7.28;;;;;;;31.57;nan;101654.16;5040938;28;20033;-47
2021/06/18 08:28:09;;;;;;;9.13;6.80;;;;;;;31.72;nan;101650.50;5048087;28;20078;-48
2021/06/18 08:30:34;;;;;;;7.53;6.72;;;;;;;31.91;nan;101651.56;5039660;28;20079;-48
2021/06/18 08:33:00;;;;;;;8.43;6.32;;;;;;;31.93;nan;101650.03;5039102;28;20119;-47
2021/06/18 08:35:27;;;;;;;7.88;6.65;;;;;;;31.91;nan;101649.59;5037989;28;20021;-47
2021/06/18 08:37:53;;;;;;;9.55;6.32;;;;;;;31.97;nan;101647.34;5044892;28;20344;-48
2021/06/18 08:40:19;;;;;;;7.63;6.32;;;;;;;32.17;nan;101646.06;5038276;28;20521;-47
2021/06/18 08:42:46;;;;;;;8.70;5.90;;;;;;;32.37;nan;101642.00;5040997;28;20109;-48
2021/06/18 08:45:12;;;;;;;8.20;6.10;;;;;;;32.23;nan;101644.53;5040415;28;20239;-47
2021/06/18 08:47:39;;;;;;;6.53;5.82;;;;;;;32.27;nan;101641.84;5042398;28;20064;-47
2021/06/18 08:50:06;;;;;;;6.07;5.47;;;;;;;32.34;nan;101636.41;5037110;28;20029;-48
2021/06/18 08:52:31;;;;;;;6.15;5.00;;;;;;;32.47;nan;101627.47;5043138;28;20479;-47
2021/06/18 08:54:57;;;;;;;7.55;5.28;;;;;;;32.56;nan;101643.03;5038623;28;20029;-48
2021/06/18 08:57:23;;;;;;;5.47;4.97;;;;;;;32.00;nan;101629.94;5046091;28;20130;-48
2021/06/18 08:59:50;;;;;;;5.28;4.35;;;;;;;32.25;nan;101633.88;5042409;28;20526;-48
2021/06/18 09:02:16;;;;;;;4.63;4.22;;;;;;;32.30;nan;101638.31;5047065;28;20057;-47
2021/06/18 09:05:16;;;;;;;22.85;5.63;;;;;;;32.28;nan;101633.16;5048193;28;20103;-48
2021/06/18 09:08:02;;;;;;;6.93;4.55;;;;;;;32.55;nan;101628.38;5047858;28;20135;-48
2021/06/18 09:10:39;;;;;;;5.85;3.95;;;;;;;32.73;nan;101629.38;5046862;28;20107;-48
2021/06/18 09:13:17;;;;;;;3.72;3.42;;;;;;;32.79;nan;101623.50;5042978;28;20124;-50
2021/06/18 09:15:54;;;;;;;5.43;3.78;;;;;;;32.50;nan;101622.34;5044196;28;20429;-49
2021/06/18 09:18:28;;;;;;;3.90;3.60;;;;;;;32.90;nan;101618.91;5048363;28;20028;-49
2021/06/18 09:21:02;;;;;;;4.35;3.72;;;;;;;32.55;nan;101616.47;5046146;28;20226;-48
2021/06/18 09:23:28;;;;;;;5.47;4.30;;;;;;;32.79;nan;101623.50;5039566;28;20119;-48
2021/06/18 09:26:21;;;;;;;4.15;3.75;;;;;;;33.01;nan;101615.03;5042274;28;20112;-49
2021/06/18 09:28:59;;;;;;;4.63;4.03;;;;;;;33.19;nan;101623.56;5039463;28;20144;-48
2021/06/18 09:31:26;;;;;;;9.98;3.75;;;;;;;32.88;nan;101616.50;5044629;28;20206;-49
2021/06/18 09:33:52;;;;;;;4.80;3.50;;;;;;;32.97;nan;101616.19;5045968;28;20079;-48
2021/06/18 09:36:17;;;;;;;6.38;4.00;;;;;;;32.59;nan;101609.00;5046470;28;20123;-48
2021/06/18 09:38:43;;;;;;;4.20;3.78;;;;;;;32.50;nan;101605.69;5046729;28;20052;-47
2021/06/18 09:41:36;;;;;;;5.13;3.80;;;;;;;32.34;nan;101609.47;5049580;28;20033;-46
2021/06/18 09:44:04;;;;;;;4.25;3.47;;;;;;;31.94;nan;101612.03;5044949;28;20039;-48
2021/06/18 09:47:05;;;;;;;4.78;4.28;;;;;;;31.65;nan;101625.41;5049188;28;20029;-48
2021/06/18 09:49:30;;;;;;;5.68;3.70;;;;;;;32.41;nan;101619.84;5035718;28;20047;-47
2021/06/18 09:52:05;;;;;;;5.05;3.45;;;;;;;32.17;nan;101624.66;5047347;28;20033;-47
2021/06/18 09:54:32;;;;;;;4.88;4.05;;;;;;;32.64;nan;101600.31;5043307;28;20043;-48
2021/06/18 09:57:09;;;;;;;4.53;3.78;;;;;;;32.85;nan;101599.78;5046514;28;20037;-46
2021/06/18 09:59:57;;;;;;;5.85;4.35;;;;;;;32.40;nan;101598.84;5045072;28;20509;-47
2021/06/18 10:02:45;;;;;;;5.05;3.80;;;;;;;32.95;nan;101601.91;5044893;28;20042;-48
2021/06/18 10:05:36;;;;;;;5.05;3.35;;;;;;;32.27;nan;101620.47;5036914;28;20029;-48
2021/06/18 10:08:03;;;;;;;5.10;4.00;;;;;;;32.72;nan;101602.81;5039002;28;20020;-48
2021/06/18 10:10:31;;;;;;;4.90;3.72;;;;;;;33.15;nan;101596.94;5039139;28;20025;-47
2021/06/18 10:12:59;;;;;;;5.00;3.60;;;;;;;32.92;nan;101599.88;5036194;28;20502;-49
2021/06/18 10:15:27;;;;;;;6.38;4.40;;;;;;;32.89;nan;101595.09;5037969;28;20107;-48
2021/06/18 10:17:54;;;;;;;4.18;3.78;;;;;;;33.10;nan;101594.53;5043059;28;20029;-48
2021/06/18 10:20:23;;;;;;;6.50;3.97;;;;;;;33.32;nan;101587.97;5044967;28;20028;-48
2021/06/18 10:23:12;;;;;;;5.45;3.88;;;;;;;33.34;nan;101588.41;5040727;28;20090;-47
2021/06/18 10:25:43;;;;;;;5.90;3.60;;;;;;;32.96;nan;101590.41;5041375;28;20044;-47
2021/06/18 10:28:11;;;;;;;4.63;4.00;;;;;;;33.22;nan;101580.38;5038512;28;20139;-47
2021/06/18 10:30:47;;;;;;;4.35;3.50;;;;;;;32.99;nan;101580.53;5036666;28;20083;-47
2021/06/18 10:33:25;;;;;;;4.75;4.00;;;;;;;32.86;nan;101582.78;5053298;28;20438;-48
2021/06/18 10:36:03;;;;;;;4.10;3.67;;;;;;;32.95;nan;101579.69;5039399;28;20108;-49
2021/06/18 10:38:32;;;;;;;4.35;3.72;;;;;;;32.67;nan;101578.16;5040229;28;20036;-50
2021/06/18 10:41:01;;;;;;;3.80;3.45;;;;;;;32.96;nan;101578.50;5039544;28;20051;-48
2021/06/18 10:43:46;;;;;;;3.97;3.55;;;;;;;32.92;nan;101572.13;5039141;28;20039;-49
2021/06/18 10:46:14;;;;;;;6.05;3.83;;;;;;;33.38;nan;101574.56;5039311;28;20060;-49
2021/06/18 10:48:51;;;;;;;11.75;4.40;;;;;;;33.62;nan;101565.63;5040364;28;20487;-49
2021/06/18 10:51:26;;;;;;;6.95;4.30;;;;;;;33.88;nan;101559.88;5038899;28;20440;-49
2021/06/18 10:54:04;;;;;;;7.60;4.07;;;;;;;34.05;nan;101552.81;5038433;28;20033;-48
2021/06/18 10:56:45;;;;;;;5.35;3.58;;;;;;;34.14;nan;101558.03;5035557;28;20071;-48
2021/06/18 10:59:31;;;;;;;10.10;4.22;;;;;;;34.16;nan;101561.22;5032481;28;20029;-48
2021/06/18 11:01:59;;;;;;;4.00;3.63;;;;;;;34.35;nan;101560.94;5036867;28;20107;-48
2021/06/18 11:04:43;;;;;;;5.82;3.58;;;;;;;34.35;nan;101554.56;5035431;28;20074;-48
2021/06/18 11:07:38;;;;;;;4.05;3.65;;;;;;;34.08;nan;101552.03;5038561;28;20033;-48
2021/06/18 11:10:09;;;;;;;7.45;3.92;;;;;;;33.72;nan;101547.44;5027030;28;20445;-49
2021/06/18 11:12:48;;;;;;;4.35;3.95;;;;;;;33.75;nan;101547.44;5039381;28;20029;-47
2021/06/18 11:15:16;;;;;;;12.73;4.10;;;;;;;34.26;nan;101546.56;5037735;28;20044;-47
2021/06/18 11:17:53;;;;;;;4.32;3.92;;;;;;;34.64;nan;101541.53;5051885;28;20040;-48
2021/06/18 11:20:33;;;;;;;5.30;4.68;;;;;;;34.74;nan;101551.91;5036758;28;20290;-48
2021/06/18 11:23:14;;;;;;;7.75;4.25;;;;;;;34.52;nan;101549.06;5034755;28;20130;-48
2021/06/18 11:25:40;;;;;;;5.30;4.28;;;;;;;34.94;nan;101546.81;5034765;28;20030;-48
2021/06/18 11:31:05;;;;;;;7.25;4.03;;;;;;;34.59;nan;101533.59;5036173;28;20640;-48
2021/06/18 11:33:44;;;;;;;7.22;3.92;;;;;;;34.85;nan;101530.50;5039850;28;20034;-48
2021/06/18 11:36:22;;;;;;;4.95;4.28;;;;;;;34.42;nan;101524.78;5037787;28;20107;-48
2021/06/18 11:38:58;;;;;;;14.07;4.38;;;;;;;34.92;nan;101540.84;5033420;28;20033;-49
2021/06/18 11:41:42;;;;;;;6.63;4.40;;;;;;;34.92;nan;101533.28;5037384;28;20037;-48
2021/06/18 11:44:10;;;;;;;5.25;4.13;;;;;;;35.13;nan;101529.72;5036784;28;20032;-50